Time;durP1;ratioP1;P1;durP2;ratioP2;P2;SDS_P1;SDS_P2;PMS_P1;PMS_P2;Temp;Humidity;BMP_temperature;BMP_pressure;BME280_temperature;BME280_humidity;BME280_pressure;Samples;Min_cycle;Max_cycle;Signal;HPM_P1;HPM_P2
2022/07/26 00:01:18;;;;;;;;;;;;;;;29.93;90.47;97643.56;5139881;28;19919;-64
2022/07/26 00:03:44;;;;;;;;;;;;;;;29.81;91.53;97661.25;5138464;28;19934;-64
2022/07/26 00:06:11;;;;;;;;;;;;;;;29.65;93.19;97638.84;5139228;28;19955;-64
2022/07/26 00:08:38;;;;;;;;;;;;;;;29.67;91.65;97635.72;5141852;28;19999;-64
2022/07/26 00:11:05;;;;;;;;;;;;;;;29.81;91.88;97642.00;5141824;28;19935;-64
2022/07/26 00:13:32;;;;;;;;;;;;;;;29.63;92.38;97646.72;5133442;28;19931;-65
2022/07/26 00:15:58;;;;;;;;;;;;;;;29.70;92.38;97640.44;5141683;28;19954;-65
2022/07/26 00:18:25;;;;;;;;;;;;;;;29.68;92.77;97651.06;5138828;28;19962;-65
2022/07/26 00:20:51;;;;;;;;;;;;;;;29.91;91.47;97652.22;5138344;28;19930;-65
2022/07/26 00:23:18;;;;;;;;;;;;;;;29.77;91.34;97645.94;5141596;27;19951;-64
2022/07/26 00:25:46;;;;;;;;;;;;;;;29.72;91.67;97654.56;5145648;27;19923;-64
2022/07/26 00:28:12;;;;;;;;;;;;;;;29.52;91.99;97662.47;5144455;27;19923;-64
2022/07/26 00:30:39;;;;;;;;;;;;;;;29.32;94.67;97653.00;5142020;27;19923;-65
2022/07/26 00:33:05;;;;;;;;;;;;;;;29.50;94.56;97656.56;5142160;27;19975;-64
2022/07/26 00:35:32;;;;;;;;;;;;;;;29.64;93.58;97655.78;5145506;27;20419;-65
2022/07/26 00:37:59;;;;;;;;;;;;;;;29.29;93.62;97668.34;5145574;27;19958;-63
2022/07/26 00:40:25;;;;;;;;;;;;;;;29.35;95.60;97668.75;5142372;27;19986;-64
2022/07/26 00:42:53;;;;;;;;;;;;;;;29.19;96.68;97674.56;5137500;27;19934;-64
2022/07/26 00:45:19;;;;;;;;;;;;;;;29.13;98.03;97667.91;5143434;27;19953;-65
2022/07/26 00:47:45;;;;;;;;;;;;;;;28.87;98.67;97671.75;5145180;27;19978;-64
2022/07/26 00:50:13;;;;;;;;;;;;;;;28.63;100.00;97666.94;5144297;27;20132;-65
2022/07/26 00:52:41;;;;;;;;;;;;;;;28.71;98.47;97654.84;5141660;27;19920;-64
2022/07/26 00:55:08;;;;;;;;;;;;;;;28.78;98.42;97665.09;5141900;27;19938;-64
2022/07/26 00:57:35;;;;;;;;;;;;;;;28.73;97.48;97655.22;5144998;27;19927;-64
2022/07/26 01:00:03;;;;;;;;;;;;;;;28.70;99.35;97660.72;5145179;27;19923;-65
2022/07/26 01:02:30;;;;;;;;;;;;;;;28.50;99.61;97662.19;5133004;27;19924;-64
2022/07/26 01:04:56;;;;;;;;;;;;;;;28.69;100.00;97667.41;5141449;27;19930;-65
2022/07/26 01:07:23;;;;;;;;;;;;;;;28.73;99.67;97665.44;5144005;27;20030;-64
2022/07/26 01:09:50;;;;;;;;;;;;;;;28.63;100.00;97663.41;5145046;27;19930;-64
2022/07/26 01:12:17;;;;;;;;;;;;;;;28.53;99.52;97659.47;5139175;27;19923;-65
2022/07/26 01:14:43;;;;;;;;;;;;;;;28.59;100.00;97655.16;5141368;27;19930;-64
2022/07/26 01:17:11;;;;;;;;;;;;;;;28.64;100.00;97652.03;5141922;27;19924;-64
2022/07/26 01:19:38;;;;;;;;;;;;;;;28.48;99.51;97643.34;5144911;27;19963;-65
2022/07/26 01:22:05;;;;;;;;;;;;;;;28.71;98.23;97651.31;5144695;27;19986;-64
2022/07/26 01:24:32;;;;;;;;;;;;;;;28.53;99.99;97644.94;5132952;27;19983;-64
2022/07/26 01:26:58;;;;;;;;;;;;;;;28.57;99.86;97645.72;5141187;27;20002;-64
2022/07/26 01:29:25;;;;;;;;;;;;;;;28.71;99.90;97648.56;5143668;27;19934;-64
2022/07/26 01:31:51;;;;;;;;;;;;;;;28.62;98.70;97642.63;5144610;27;19962;-64
2022/07/26 01:34:18;;;;;;;;;;;;;;;28.45;100.00;97635.06;5142510;27;19923;-64
2022/07/26 01:36:44;;;;;;;;;;;;;;;28.52;100.00;97648.84;5140934;27;19958;-64
2022/07/26 01:39:12;;;;;;;;;;;;;;;28.85;98.80;97646.63;5141623;27;19963;-63
2022/07/26 01:41:38;;;;;;;;;;;;;;;28.50;100.00;97643.75;5143766;27;19919;-64
2022/07/26 01:44:05;;;;;;;;;;;;;;;28.50;100.00;97641.00;5140741;27;19923;-65
2022/07/26 01:46:31;;;;;;;;;;;;;;;28.39;100.00;97637.41;5132099;27;19977;-64
2022/07/26 01:49:00;;;;;;;;;;;;;;;28.57;100.00;97642.97;5140782;27;19923;-64
2022/07/26 01:51:26;;;;;;;;;;;;;;;28.74;100.00;97636.78;5143544;27;19923;-64
2022/07/26 01:53:53;;;;;;;;;;;;;;;28.74;99.00;97634.03;5143879;27;19953;-65
2022/07/26 01:56:20;;;;;;;;;;;;;;;28.86;98.18;97645.47;5141805;27;19919;-66
2022/07/26 01:58:47;;;;;;;;;;;;;;;28.73;98.78;97638.75;5140396;27;19944;-64
2022/07/26 02:01:13;;;;;;;;;;;;;;;28.56;100.00;97636.72;5141204;27;19931;-65
2022/07/26 02:03:40;;;;;;;;;;;;;;;28.72;99.84;97637.16;5143880;27;19935;-65
2022/07/26 02:06:06;;;;;;;;;;;;;;;28.70;99.50;97634.03;5143621;27;19953;-64
2022/07/26 02:08:33;;;;;;;;;;;;;;;28.64;98.29;97635.56;5140264;27;20000;-65
2022/07/26 02:11:02;;;;;;;;;;;;;;;28.81;98.56;97640.31;5140174;27;19974;-64
2022/07/26 02:13:32;;;;;;;;;;;;;;;28.94;97.98;97641.53;5139088;27;19956;-65
2022/07/26 02:16:01;;;;;;;;;;;;;;;28.89;98.70;97641.94;5143533;27;19958;-64
2022/07/26 02:18:28;;;;;;;;;;;;;;;28.57;100.00;97635.50;5139999;27;20103;-64
2022/07/26 02:20:55;;;;;;;;;;;;;;;28.88;98.80;97634.84;5139963;27;19963;-65
2022/07/26 02:23:21;;;;;;;;;;;;;;;28.98;98.16;97644.31;5142073;27;19924;-64
2022/07/26 02:25:48;;;;;;;;;;;;;;;28.82;98.81;97632.88;5143426;27;19919;-64
2022/07/26 02:28:14;;;;;;;;;;;;;;;28.84;98.83;97634.06;5141768;27;19923;-63
2022/07/26 02:30:42;;;;;;;;;;;;;;;28.64;99.65;97619.06;5139663;27;19929;-64
2022/07/26 02:33:09;;;;;;;;;;;;;;;28.67;99.94;97623.81;5140185;27;20227;-64
2022/07/26 02:35:35;;;;;;;;;;;;;;;28.78;99.17;97627.34;5143293;27;19934;-64
2022/07/26 02:38:02;;;;;;;;;;;;;;;28.90;98.18;97627.03;5143058;27;19924;-64
2022/07/26 02:40:29;;;;;;;;;;;;;;;28.72;99.25;97620.66;5139731;27;19950;-64
2022/07/26 02:42:55;;;;;;;;;;;;;;;28.62;100.00;97629.66;5135235;27;19999;-64
2022/07/26 02:45:22;;;;;;;;;;;;;;;28.69;99.91;97626.94;5140994;27;19949;-64
2022/07/26 02:47:50;;;;;;;;;;;;;;;28.74;99.37;97623.84;5143085;27;19923;-64
2022/07/26 02:50:17;;;;;;;;;;;;;;;28.63;99.07;97622.97;5140982;27;19973;-65
2022/07/26 02:52:45;;;;;;;;;;;;;;;28.91;97.97;97625.81;5139418;27;19927;-64
2022/07/26 02:55:12;;;;;;;;;;;;;;;28.83;98.56;97638.00;5140192;27;19924;-65
2022/07/26 02:57:38;;;;;;;;;;;;;;;28.70;99.91;97630.50;5142794;27;19923;-64
2022/07/26 03:00:05;;;;;;;;;;;;;;;28.74;99.67;97634.84;5142858;27;20402;-64
2022/07/26 03:02:32;;;;;;;;;;;;;;;28.91;98.11;97634.06;5130887;27;19930;-64
2022/07/26 03:05:01;;;;;;;;;;;;;;;28.75;99.12;97639.13;5139181;27;19930;-64
2022/07/26 03:07:27;;;;;;;;;;;;;;;28.86;98.20;97647.41;5142405;27;19928;-64
2022/07/26 03:09:53;;;;;;;;;;;;;;;28.79;99.10;97645.44;5142682;27;19962;-65
2022/07/26 03:12:20;;;;;;;;;;;;;;;28.81;98.85;97642.31;5136045;27;19934;-64
2022/07/26 03:14:46;;;;;;;;;;;;;;;28.82;99.12;97644.66;5139030;27;19932;-64
2022/07/26 03:17:12;;;;;;;;;;;;;;;28.80;98.87;97646.22;5139944;27;19959;-65
2022/07/26 03:19:39;;;;;;;;;;;;;;;28.87;98.48;97644.25;5142438;27;20010;-64
2022/07/26 03:22:07;;;;;;;;;;;;;;;28.85;98.55;97645.84;5142597;27;19994;-64
2022/07/26 03:24:33;;;;;;;;;;;;;;;28.87;98.22;97649.00;5138929;27;20355;-64
2022/07/26 03:26:59;;;;;;;;;;;;;;;28.79;99.30;97641.91;5138874;27;19931;-63
2022/07/26 03:29:26;;;;;;;;;;;;;;;28.80;98.69;97644.28;5141607;27;19923;-64
2022/07/26 03:31:52;;;;;;;;;;;;;;;28.71;99.14;97645.81;5142237;27;19962;-63
2022/07/26 03:34:19;;;;;;;;;;;;;;;28.52;100.00;97644.16;5140280;27;19958;-63
2022/07/26 03:36:45;;;;;;;;;;;;;;;28.59;100.00;97655.16;5138603;28;20003;-64
2022/07/26 03:39:13;;;;;;;;;;;;;;;28.68;100.00;97657.56;5139446;27;19934;-65
2022/07/26 03:41:39;;;;;;;;;;;;;;;28.71;99.85;97652.09;5141432;27;19925;-63
2022/07/26 03:44:06;;;;;;;;;;;;;;;28.77;99.33;97658.78;5138687;28;19935;-64
2022/07/26 03:46:32;;;;;;;;;;;;;;;28.82;98.85;97655.66;5138362;28;19931;-64
2022/07/26 03:48:58;;;;;;;;;;;;;;;28.76;99.12;97668.19;5138396;28;19935;-64
2022/07/26 03:51:25;;;;;;;;;;;;;;;28.80;98.38;97654.47;5141241;28;20260;-64
2022/07/26 03:53:51;;;;;;;;;;;;;;;28.80;98.74;97647.03;5142052;28;19986;-64
2022/07/26 03:56:30;;;;;;;;;;;;;;;28.80;99.14;97651.72;5139859;28;19927;-64
2022/07/26 03:58:58;;;;;;;;;;;;;;;28.82;98.88;97657.59;5141411;27;19987;-64
2022/07/26 04:01:25;;;;;;;;;;;;;;;28.72;99.24;97650.91;5145156;27;19947;-63
2022/07/26 04:03:52;;;;;;;;;;;;;;;28.75;99.08;97658.38;5146183;27;19987;-64
2022/07/26 04:06:18;;;;;;;;;;;;;;;28.65;99.26;97652.84;5144002;27;19928;-64
2022/07/26 04:08:44;;;;;;;;;;;;;;;28.61;99.69;97655.56;5142458;27;19924;-64
2022/07/26 04:11:11;;;;;;;;;;;;;;;28.56;99.87;97660.66;5143275;27;19966;-64
2022/07/26 04:13:38;;;;;;;;;;;;;;;28.39;100.00;97665.69;5141543;27;20358;-63
2022/07/26 04:16:05;;;;;;;;;;;;;;;28.40;100.00;97661.75;5145971;27;19930;-64
2022/07/26 04:18:32;;;;;;;;;;;;;;;28.63;99.49;97661.44;5133878;27;19999;-64
2022/07/26 04:20:58;;;;;;;;;;;;;;;28.64;99.88;97660.28;5142317;27;19919;-63
2022/07/26 04:23:25;;;;;;;;;;;;;;;28.47;100.00;97660.22;5144821;27;19970;-64
2022/07/26 04:25:51;;;;;;;;;;;;;;;28.31;100.00;97655.06;5145743;27;19930;-64
2022/07/26 04:28:17;;;;;;;;;;;;;;;28.36;100.00;97657.41;5143949;27;19928;-65
2022/07/26 04:30:45;;;;;;;;;;;;;;;28.47;100.00;97662.97;5142047;27;19959;-65
2022/07/26 04:33:11;;;;;;;;;;;;;;;28.52;100.00;97671.63;5142792;27;19923;-64
2022/07/26 04:35:38;;;;;;;;;;;;;;;28.53;100.00;97658.69;5145511;27;19935;-64
2022/07/26 04:38:04;;;;;;;;;;;;;;;28.45;100.00;97663.34;5145387;27;19955;-64
2022/07/26 04:40:33;;;;;;;;;;;;;;;28.55;100.00;97664.56;5133494;27;19975;-64
2022/07/26 04:42:59;;;;;;;;;;;;;;;28.56;100.00;97661.44;5137575;27;19924;-64
2022/07/26 04:45:26;;;;;;;;;;;;;;;28.34;100.00;97660.56;5144508;27;19938;-65
2022/07/26 04:47:53;;;;;;;;;;;;;;;28.42;100.00;97664.13;5145258;27;19931;-65
2022/07/26 04:50:21;;;;;;;;;;;;;;;28.53;100.00;97675.94;5143186;27;19930;-64
2022/07/26 04:52:48;;;;;;;;;;;;;;;28.55;100.00;97670.84;5141784;27;19934;-65
2022/07/26 04:55:14;;;;;;;;;;;;;;;28.54;100.00;97671.22;5142846;27;19930;-64
2022/07/26 04:57:41;;;;;;;;;;;;;;;28.47;100.00;97676.69;5145075;27;19927;-64
2022/07/26 05:00:09;;;;;;;;;;;;;;;28.44;100.00;97674.72;5144796;27;19961;-65
2022/07/26 05:02:36;;;;;;;;;;;;;;;28.57;100.00;97678.69;5141471;27;19927;-65
2022/07/26 05:05:04;;;;;;;;;;;;;;;28.56;100.00;97672.44;5141347;27;19923;-65
2022/07/26 05:07:39;;;;;;;;;;;;;;;28.53;100.00;97680.66;5132992;27;19931;-64
2022/07/26 05:10:06;;;;;;;;;;;;;;;28.61;100.00;97671.25;5140768;27;19924;-65
2022/07/26 05:12:32;;;;;;;;;;;;;;;28.54;100.00;97674.75;5141029;27;19983;-66
2022/07/26 05:14:58;;;;;;;;;;;;;;;28.59;100.00;97671.66;5141364;27;19924;-65
2022/07/26 05:17:25;;;;;;;;;;;;;;;28.52;100.00;97684.56;5144074;27;19963;-65
2022/07/26 05:19:51;;;;;;;;;;;;;;;28.55;100.00;97679.09;5144854;27;19991;-64
2022/07/26 05:22:19;;;;;;;;;;;;;;;28.56;100.00;97688.13;5142863;27;19927;-65
2022/07/26 05:24:45;;;;;;;;;;;;;;;28.54;100.00;97685.75;5141100;27;19924;-65
2022/07/26 05:27:11;;;;;;;;;;;;;;;28.60;99.56;97684.19;5141783;27;19924;-65
2022/07/26 05:29:38;;;;;;;;;;;;;;;28.55;99.21;97683.78;5144392;27;20568;-65
2022/07/26 05:32:04;;;;;;;;;;;;;;;28.61;98.56;97685.00;5144409;27;19923;-64
2022/07/26 05:34:31;;;;;;;;;;;;;;;28.63;97.67;97677.13;5132408;27;19935;-64
2022/07/26 05:36:57;;;;;;;;;;;;;;;28.67;97.36;97684.25;5140850;27;19932;-64
2022/07/26 05:39:25;;;;;;;;;;;;;;;28.60;97.07;97689.69;5143265;27;19924;-65
2022/07/26 05:41:52;;;;;;;;;;;;;;;28.62;96.90;97698.34;5141971;27;20052;-65
2022/07/26 05:44:18;;;;;;;;;;;;;;;28.51;97.56;97689.25;5140493;27;19929;-64
2022/07/26 05:46:45;;;;;;;;;;;;;;;28.43;97.72;97690.41;5140633;27;19949;-65
2022/07/26 05:49:11;;;;;;;;;;;;;;;28.50;98.03;97673.97;5141294;27;19923;-64
2022/07/26 05:51:37;;;;;;;;;;;;;;;28.55;97.03;97676.34;5144162;27;19966;-65
2022/07/26 05:54:04;;;;;;;;;;;;;;;28.67;95.44;97681.53;5144176;27;19961;-65
2022/07/26 05:56:31;;;;;;;;;;;;;;;28.35;97.09;97694.28;5140526;27;19950;-65
2022/07/26 05:58:58;;;;;;;;;;;;;;;28.45;97.00;97685.31;5140616;27;19935;-65
2022/07/26 06:01:24;;;;;;;;;;;;;;;28.42;97.20;97694.31;5141772;27;20026;-64
2022/07/26 06:03:50;;;;;;;;;;;;;;;28.55;96.60;97692.81;5143997;27;19996;-65
2022/07/26 06:06:17;;;;;;;;;;;;;;;28.52;95.82;97685.34;5141997;27;19931;-64
2022/07/26 06:08:43;;;;;;;;;;;;;;;28.65;94.44;97692.13;5140234;27;20052;-65
2022/07/26 06:11:09;;;;;;;;;;;;;;;28.71;93.90;97695.28;5140623;27;19928;-65
2022/07/26 06:13:37;;;;;;;;;;;;;;;28.73;93.66;97687.41;5139324;27;19924;-65
2022/07/26 06:16:04;;;;;;;;;;;;;;;28.81;92.61;97684.31;5143639;27;19984;-65
2022/07/26 06:18:30;;;;;;;;;;;;;;;28.82;92.17;97683.13;5139789;27;19963;-65
2022/07/26 06:20:56;;;;;;;;;;;;;;;28.02;92.02;97688.97;5139178;27;19935;-64
2022/07/26 06:23:23;;;;;;;;;;;;;;;27.85;97.20;97693.19;5141419;27;19924;-64
2022/07/26 06:25:49;;;;;;;;;;;;;;;27.93;97.04;97691.25;5143627;27;19920;-64
2022/07/26 06:28:16;;;;;;;;;;;;;;;27.83;91.68;97695.50;5141925;27;19955;-65
2022/07/26 06:30:44;;;;;;;;;;;;;;;27.78;94.45;97690.38;5139856;27;19939;-63
2022/07/26 06:33:11;;;;;;;;;;;;;;;27.63;92.46;97694.97;5140574;27;19955;-64
2022/07/26 06:35:38;;;;;;;;;;;;;;;27.25;97.14;97687.16;5143193;27;19927;-66
2022/07/26 06:38:05;;;;;;;;;;;;;;;27.35;97.15;97676.28;5143388;27;20062;-65
2022/07/26 06:40:31;;;;;;;;;;;;;;;27.83;93.78;97684.53;5143065;27;19931;-64
2022/07/26 06:42:58;;;;;;;;;;;;;;;28.05;89.31;97688.22;5135712;27;19935;-65
2022/07/26 06:45:24;;;;;;;;;;;;;;;28.16;89.58;97691.84;5141845;27;19955;-64
2022/07/26 06:47:52;;;;;;;;;;;;;;;28.19;87.07;97691.88;5143137;27;19923;-65
2022/07/26 06:50:19;;;;;;;;;;;;;;;27.60;83.80;97697.69;5141102;27;19953;-65
2022/07/26 06:52:45;;;;;;;;;;;;;;;27.92;86.84;97695.16;5139520;27;19931;-65
2022/07/26 06:55:12;;;;;;;;;;;;;;;27.68;76.23;97705.59;5139997;27;19971;-64
2022/07/26 06:57:38;;;;;;;;;;;;;;;27.16;79.92;97701.16;5142743;27;19930;-64
2022/07/26 07:00:06;;;;;;;;;;;;;;;26.77;78.31;97706.19;5142778;27;19958;-64
2022/07/26 07:02:32;;;;;;;;;;;;;;;26.65;77.65;97705.63;5130876;27;20441;-65
2022/07/26 07:05:00;;;;;;;;;;;;;;;26.34;83.31;97723.22;5139048;27;19966;-64
2022/07/26 07:07:26;;;;;;;;;;;;;;;26.08;81.87;97718.56;5142020;27;19928;-65
2022/07/26 07:09:53;;;;;;;;;;;;;;;26.17;82.98;97710.91;5142493;27;19966;-65
2022/07/26 07:12:19;;;;;;;;;;;;;;;26.76;86.64;97710.09;5136197;27;19924;-64
2022/07/26 07:14:46;;;;;;;;;;;;;;;27.23;82.55;97695.72;5139112;27;19924;-64
2022/07/26 07:17:12;;;;;;;;;;;;;;;27.63;81.32;97714.19;5139771;27;19999;-65
2022/07/26 07:19:38;;;;;;;;;;;;;;;27.92;78.38;97700.66;5142520;27;19919;-65
2022/07/26 07:22:10;;;;;;;;;;;;;;;27.80;71.55;97704.50;5142458;27;19923;-65
2022/07/26 07:24:36;;;;;;;;;;;;;;;27.92;74.25;97708.88;5131263;27;19987;-64
2022/07/26 07:27:03;;;;;;;;;;;;;;;28.14;72.10;97705.16;5138866;27;19966;-64
2022/07/26 07:29:29;;;;;;;;;;;;;;;28.00;69.62;97716.03;5141971;27;19927;-64
2022/07/26 07:31:55;;;;;;;;;;;;;;;28.11;72.98;97708.66;5142061;27;19934;-65
2022/07/26 07:34:22;;;;;;;;;;;;;;;28.30;71.32;97708.38;5139764;27;19931;-65
2022/07/26 07:36:48;;;;;;;;;;;;;;;28.40;70.37;97718.66;5138920;27;19928;-65
2022/07/26 07:39:16;;;;;;;;;;;;;;;28.11;69.82;97723.19;5139892;27;19967;-64
2022/07/26 07:41:43;;;;;;;;;;;;;;;28.39;69.63;97711.56;5141187;27;20510;-65
2022/07/26 07:44:09;;;;;;;;;;;;;;;28.31;67.71;97704.47;5138533;27;19946;-65
2022/07/26 07:46:36;;;;;;;;;;;;;;;28.42;68.83;97694.31;5138407;28;19928;-64
2022/07/26 07:49:02;;;;;;;;;;;;;;;28.52;68.02;97692.81;5138476;28;19923;-64
2022/07/26 07:51:28;;;;;;;;;;;;;;;28.06;65.54;97693.34;5141628;28;19971;-65
2022/07/26 07:53:55;;;;;;;;;;;;;;;27.83;61.45;97701.78;5142173;28;19967;-64
2022/07/26 07:56:23;;;;;;;;;;;;;;;27.55;61.56;97701.56;5139653;28;19971;-65
2022/07/26 07:58:49;;;;;;;;;;;;;;;27.65;62.09;97687.13;5138551;28;20368;-64
2022/07/26 08:01:16;;;;;;;;;;;;;;;27.10;58.89;97701.88;5139556;28;20007;-64
2022/07/26 08:03:42;;;;;;;;;;;;;;;26.76;58.54;97704.63;5142075;28;19925;-65
2022/07/26 08:06:09;;;;;;;;;;;;;;;27.07;62.47;97708.13;5141593;28;20009;-64
2022/07/26 08:08:35;;;;;;;;;;;;;;;27.17;62.50;97701.97;5138004;28;19924;-64
2022/07/26 08:11:02;;;;;;;;;;;;;;;26.96;59.68;97704.47;5138216;28;19927;-64
2022/07/26 08:13:30;;;;;;;;;;;;;;;27.27;62.80;97704.78;5136883;28;19938;-65
2022/07/26 08:15:57;;;;;;;;;;;;;;;27.54;58.76;97701.94;5141813;28;19923;-64
2022/07/26 08:18:23;;;;;;;;;;;;;;;28.02;61.60;97698.00;5139263;28;19962;-64
2022/07/26 08:20:50;;;;;;;;;;;;;;;28.61;59.73;97696.78;5138420;28;19924;-64
2022/07/26 08:23:16;;;;;;;;;;;;;;;28.62;59.36;97705.81;5139853;28;19930;-64
2022/07/26 08:25:43;;;;;;;;;;;;;;;28.72;58.65;97708.63;5141839;28;19987;-64
2022/07/26 08:28:09;;;;;;;;;;;;;;;28.72;59.13;97708.63;5141110;28;19969;-65
2022/07/26 08:30:37;;;;;;;;;;;;;;;28.62;59.38;97712.09;5138254;28;19934;-63
2022/07/26 08:33:03;;;;;;;;;;;;;;;28.81;59.52;97706.28;5138230;28;19970;-64
2022/07/26 08:35:29;;;;;;;;;;;;;;;28.32;56.47;97717.03;5141546;28;19984;-64
2022/07/26 08:37:56;;;;;;;;;;;;;;;28.53;58.73;97714.41;5141927;28;19923;-64
2022/07/26 08:40:22;;;;;;;;;;;;;;;28.39;57.61;97711.56;5139260;28;20010;-65
2022/07/26 08:42:49;;;;;;;;;;;;;;;28.48;59.10;97709.28;5133870;28;19962;-64
2022/07/26 08:45:20;;;;;;;;;;;;;;;28.81;58.99;97709.03;5142492;27;19930;-64
2022/07/26 08:47:48;;;;;;;;;;;;;;;29.11;58.56;97703.25;5145436;27;20002;-63
2022/07/26 08:50:14;;;;;;;;;;;;;;;29.29;57.45;97708.81;5143841;27;20375;-64
2022/07/26 08:52:41;;;;;;;;;;;;;;;29.49;55.62;97690.78;5141756;27;19931;-64
2022/07/26 08:55:07;;;;;;;;;;;;;;;29.37;51.86;97705.69;5141843;27;19924;-65
2022/07/26 08:57:34;;;;;;;;;;;;;;;29.15;52.68;97697.78;5145120;27;19919;-64
2022/07/26 09:00:17;;;;;;;;;;;;;;;28.97;51.56;97702.44;5145085;27;19930;-63
2022/07/26 09:02:44;;;;;;;;;;;;;;;29.28;54.81;97698.97;5133860;27;19970;-65
2022/07/26 09:05:12;;;;;;;;;;;;;;;29.54;54.03;97695.88;5141966;27;19970;-64
2022/07/26 09:07:38;;;;;;;;;;;;;;;29.37;50.18;97702.94;5144943;27;19923;-64
2022/07/26 09:10:07;;;;;;;;;;;;;;;28.84;49.46;97702.75;5144788;27;19931;-64
2022/07/26 09:12:34;;;;;;;;;;;;;;;29.10;53.76;97712.66;5128771;27;19959;-64
2022/07/26 09:15:01;;;;;;;;;;;;;;;29.44;53.51;97711.19;5141533;27;19923;-65
2022/07/26 09:17:37;;;;;;;;;;;;;;;29.84;52.16;97710.03;5144270;27;19935;-65
2022/07/26 09:20:05;;;;;;;;;;;;;;;30.04;51.87;97704.13;5144779;27;19924;-64
2022/07/26 09:22:33;;;;;;;;;;;;;;;30.23;51.27;97712.78;5132670;27;19930;-64
2022/07/26 09:24:59;;;;;;;;;;;;;;;30.28;50.78;97723.38;5141106;27;19924;-64
2022/07/26 09:27:33;;;;;;;;;;;;;;;30.14;49.59;97714.34;5143789;27;19951;-64
2022/07/26 09:30:04;;;;;;;;;;;;;;;30.14;50.11;97730.88;5144505;27;19976;-64
2022/07/26 09:32:30;;;;;;;;;;;;;;;29.85;50.42;97719.91;5141088;27;19934;-64
2022/07/26 09:35:09;;;;;;;;;;;;;;;30.03;50.54;97717.13;5140896;27;19930;-64
2022/07/26 09:37:37;;;;;;;;;;;;;;;29.83;49.06;97716.72;5133113;27;19983;-64
2022/07/26 09:40:05;;;;;;;;;;;;;;;29.98;49.50;97715.56;5140897;27;19947;-64
2022/07/26 09:42:32;;;;;;;;;;;;;;;30.14;48.77;97720.66;5127939;27;19980;-64
2022/07/26 09:44:58;;;;;;;;;;;;;;;30.26;48.42;97706.47;5140269;27;19962;-63
2022/07/26 09:47:34;;;;;;;;;;;;;;;30.36;47.66;97713.13;5143406;27;19962;-64
2022/07/26 09:50:11;;;;;;;;;;;;;;;30.57;47.21;97709.53;5143097;27;19966;-64
2022/07/26 09:52:38;;;;;;;;;;;;;;;30.66;46.56;97701.63;5132800;27;19924;-64
2022/07/26 09:55:05;;;;;;;;;;;;;;;30.70;46.41;97707.94;5139329;27;19962;-65
2022/07/26 09:57:32;;;;;;;;;;;;;;;30.70;46.70;97705.94;5127436;27;20119;-64
2022/07/26 09:59:58;;;;;;;;;;;;;;;30.48;46.97;97702.47;5135960;27;19924;-64
2022/07/26 10:02:25;;;;;;;;;;;;;;;30.73;46.64;97707.88;5143126;27;19978;-64
2022/07/26 10:04:51;;;;;;;;;;;;;;;30.54;45.13;97705.63;5142855;27;19923;-64
2022/07/26 10:07:18;;;;;;;;;;;;;;;30.48;45.76;97707.97;5142209;27;19955;-65
2022/07/26 10:09:48;;;;;;;;;;;;;;;30.77;45.58;97705.13;5140204;27;20002;-65
2022/07/26 10:12:16;;;;;;;;;;;;;;;30.80;45.63;97710.63;5140072;27;20447;-64
2022/07/26 10:14:44;;;;;;;;;;;;;;;30.62;45.57;97701.66;5140183;27;19983;-64
2022/07/26 10:17:44;;;;;;;;;;;;;;;30.87;45.31;97693.25;5140707;27;19987;-65
2022/07/26 10:20:11;;;;;;;;;;;;;;;30.64;45.42;97693.75;5143100;27;19942;-64
2022/07/26 10:22:44;;;;;;;;;;;;;;;30.80;45.55;97693.28;5139942;27;19928;-64
2022/07/26 10:25:25;;;;;;;;;;;;;;;30.89;45.34;97691.66;5140666;27;20008;-65
2022/07/26 10:27:54;;;;;;;;;;;;;;;31.00;44.44;97686.94;5143371;27;19933;-65
2022/07/26 10:30:21;;;;;;;;;;;;;;;31.06;44.95;97692.00;5141300;27;19934;-64
2022/07/26 10:32:57;;;;;;;;;;;;;;;31.17;45.09;97685.22;5139813;27;19924;-64
2022/07/26 10:35:30;;;;;;;;;;;;;;;31.11;45.34;97675.03;5142122;27;19959;-66
2022/07/26 10:37:57;;;;;;;;;;;;;;;31.12;44.57;97679.38;5143289;27;20574;-65
2022/07/26 10:40:28;;;;;;;;;;;;;;;31.13;44.93;97683.69;5140622;27;19924;-65
2022/07/26 10:43:06;;;;;;;;;;;;;;;31.01;45.10;97682.22;5135184;27;19981;-65
2022/07/26 10:45:32;;;;;;;;;;;;;;;31.06;43.78;97686.50;5130902;27;19924;-65
2022/07/26 10:48:09;;;;;;;;;;;;;;;30.91;45.27;97681.03;5139528;27;19958;-66
2022/07/26 10:50:36;;;;;;;;;;;;;;;30.79;45.38;97681.50;5131623;27;20465;-64
2022/07/26 10:53:03;;;;;;;;;;;;;;;30.63;45.82;97683.94;5139416;27;19931;-64
2022/07/26 10:55:31;;;;;;;;;;;;;;;30.81;45.31;97678.31;5141012;27;21395;-65
2022/07/26 10:57:57;;;;;;;;;;;;;;;30.77;45.49;97677.56;5142905;27;19990;-64
2022/07/26 11:00:26;;;;;;;;;;;;;;;30.81;45.09;97681.88;5139967;27;19923;-64
2022/07/26 11:02:53;;;;;;;;;;;;;;;30.77;45.46;97680.31;5139227;27;19970;-64
2022/07/26 11:05:21;;;;;;;;;;;;;;;30.75;45.49;97686.25;5140818;27;19974;-65
2022/07/26 11:07:49;;;;;;;;;;;;;;;30.62;45.87;97679.59;5142280;27;19927;-65
2022/07/26 11:10:16;;;;;;;;;;;;;;;30.71;44.87;97695.69;5140831;27;19977;-64
2022/07/26 11:12:42;;;;;;;;;;;;;;;30.61;45.29;97693.78;5134347;27;19959;-64
2022/07/26 11:15:15;;;;;;;;;;;;;;;30.57;45.40;97693.81;5139076;27;19931;-65
2022/07/26 11:17:43;;;;;;;;;;;;;;;30.66;44.71;97691.41;5142285;27;19959;-64
2022/07/26 11:20:10;;;;;;;;;;;;;;;30.61;45.24;97688.28;5141969;27;19930;-65
2022/07/26 11:22:36;;;;;;;;;;;;;;;30.67;45.00;97690.19;5138777;27;19935;-64
2022/07/26 11:25:03;;;;;;;;;;;;;;;30.58;45.21;97689.84;5138824;27;19924;-65
2022/07/26 11:27:30;;;;;;;;;;;;;;;30.53;45.44;97684.75;5142127;27;19939;-65
2022/07/26 11:30:02;;;;;;;;;;;;;;;30.71;45.14;97676.41;5142323;27;19929;-65
2022/07/26 11:32:28;;;;;;;;;;;;;;;30.69;44.27;97687.84;5139138;27;19987;-64
2022/07/26 11:34:59;;;;;;;;;;;;;;;30.56;45.09;97683.94;5138782;28;19924;-64
2022/07/26 11:37:25;;;;;;;;;;;;;;;30.52;45.44;97688.69;5141298;27;19935;-64
2022/07/26 11:39:52;;;;;;;;;;;;;;;30.42;46.06;97684.00;5142308;27;19982;-64
2022/07/26 11:42:20;;;;;;;;;;;;;;;30.54;45.49;97678.06;5135770;27;20026;-65
2022/07/26 11:44:47;;;;;;;;;;;;;;;30.36;46.95;97671.81;5138619;27;19932;-64
2022/07/26 11:47:15;;;;;;;;;;;;;;;30.26;46.87;97678.13;5139500;27;19958;-65
2022/07/26 11:49:42;;;;;;;;;;;;;;;30.32;46.00;97677.31;5141832;27;19924;-64
2022/07/26 11:52:10;;;;;;;;;;;;;;;30.13;46.47;97672.25;5141878;28;19947;-64
2022/07/26 11:54:43;;;;;;;;;;;;;;;30.37;45.84;97674.16;5138457;28;20014;-64
2022/07/26 11:57:10;;;;;;;;;;;;;;;30.44;45.30;97665.09;5138762;28;19924;-64
2022/07/26 11:59:37;;;;;;;;;;;;;;;30.55;45.50;97667.81;5141957;28;19927;-65
2022/07/26 12:02:04;;;;;;;;;;;;;;;30.66;44.96;97657.53;5141797;28;19923;-65
2022/07/26 12:04:32;;;;;;;;;;;;;;;29.97;46.35;97661.66;5138253;28;19923;-65
2022/07/26 12:06:59;;;;;;;;;;;;;;;29.79;46.52;97649.88;5138364;28;19951;-64
2022/07/26 12:09:31;;;;;;;;;;;;;;;29.64;46.59;97659.31;5140931;28;19959;-67
2022/07/26 12:11:58;;;;;;;;;;;;;;;29.67;46.65;97649.47;5138693;28;19970;-66
2022/07/26 12:14:25;;;;;;;;;;;;;;;30.12;46.21;97656.09;5138609;28;19951;-67
2022/07/26 12:16:51;;;;;;;;;;;;;;;29.96;46.40;97648.28;5138684;28;19923;-66
2022/07/26 12:19:25;;;;;;;;;;;;;;;29.65;46.73;97644.34;5141546;27;19934;-66
2022/07/26 12:21:53;;;;;;;;;;;;;;;29.76;46.54;97649.88;5145794;27;19928;-65
2022/07/26 12:24:38;;;;;;;;;;;;;;;29.67;45.72;97641.22;5143950;27;19919;-65
2022/07/26 12:27:06;;;;;;;;;;;;;;;29.51;46.14;97638.88;5142202;27;19927;-65
2022/07/26 12:29:35;;;;;;;;;;;;;;;29.46;46.01;97640.03;5133516;27;19924;-66
2022/07/26 12:32:08;;;;;;;;;;;;;;;29.55;45.90;97644.38;5141903;27;19962;-66
2022/07/26 12:34:35;;;;;;;;;;;;;;;29.80;45.43;97634.91;5133876;27;19958;-66
2022/07/26 12:37:11;;;;;;;;;;;;;;;29.32;46.60;97631.00;5141840;27;19986;-66
2022/07/26 12:39:40;;;;;;;;;;;;;;;29.94;46.00;97632.16;5134308;27;19987;-68
2022/07/26 12:42:27;;;;;;;;;;;;;;;30.05;45.71;97634.13;5141730;27;19924;-66
2022/07/26 12:44:54;;;;;;;;;;;;;;;29.90;45.91;97631.38;5132538;27;20579;-64
2022/07/26 12:47:20;;;;;;;;;;;;;;;29.39;46.38;97634.56;5143500;27;19923;-66